Главная страница
METAR-TAF:

METAR-TAF

Аэропорты :

Шлeзвиг-Jagel, Германия

широта: 54-28N, долгота: 009-31E, высота над уровнем моря: 22 м

Текущие метеонаблюдения

Эта сводка был подготовлена 42 минут назад, в 10:20 UTC
Ветер 9 Узел от восточно-северо-восточный
Температура 27°C
Влажность 37%
Давление 1020 hPa
Видимость: 6000 м

METAR: ETNS 091020Z AUTO 06009KT 6000 // ////// 27/11 Q1020 ///

Время: 13:02 (11:02 UTC)


TAF: отсутствует

Метеонаблюдения и прогнозы для более 4000 аэропортов (сводки METAR и TAF).

Имеющиеся станции представлены на карте желтыми и красными точками.

Чтобы увидеть название станции, наведите на нее мышь.

Затем щелкните, чтобы увидеть метеонаблюдения и метеопрогнозы.

Управление картой: чтобы увеличить масштаб, щелкните зеленые кнопки с черным крестиком; чтобы уменьшить масштаб, щелкните зеленую кнопку с тире; для просмотра соседних карт щелкайте зеленые стрелки.


METAR-TAF: